Terminal Aerodrome Forecast
Issued by NWS

Home | Current Version | Previous Version | Text Only | Print | Product List | Glossary On
Versions: 1 2 3 4 5 6 7 8 9 10 11 12 13
167
FTUS41 KAKQ 230520
TAFPHF
TAF
KPHF 230520Z 2306/2406 18008KT P6SM SCT025 OVC060 WS020/20035KT
     FM231000 18012KT P6SM BKN030 WS020/20045KT
     FM231200 18012KT 4SM -SHRA OVC025 WS020/20045KT
     FM231500 20016G24KT 4SM -SHRA OVC020
     FM231800 23016G24KT P6SM BKN025 BKN040
     FM240100 28009KT P6SM SKC=

USA.gov is the U.S. government's official web portal to all federal, state and local government web resources and services.